createdAt,value
2022-12-17T00:03:35.633Z,1.6
2022-12-17T00:12:59.650Z,1.6
2022-12-17T00:16:13.620Z,3.1
2022-12-17T00:23:37.372Z,3.5
2022-12-17T00:33:39.066Z,8.1
2022-12-17T00:43:39.288Z,8.9
2022-12-17T00:53:39.769Z,6.6
2022-12-17T01:03:40.607Z,3
2022-12-17T01:08:47.626Z,3
2022-12-17T01:13:41.612Z,1.7
2022-12-17T01:23:42.584Z,1.7
2022-12-17T01:33:43.532Z,1.7
2022-12-17T01:43:44.491Z,2.1
2022-12-17T01:53:45.446Z,1.9
2022-12-17T02:03:46.279Z,2.3
2022-12-17T02:13:47.190Z,2.2
2022-12-17T02:23:47.950Z,2.1
2022-12-17T02:33:48.817Z,2.1
2022-12-17T02:44:00.148Z,2.8
2022-12-17T02:53:51.643Z,2.5
2022-12-17T03:03:51.265Z,2
2022-12-17T03:13:52.069Z,2.2
2022-12-17T03:23:52.814Z,2.2
2022-12-17T03:33:53.511Z,2.5
2022-12-17T03:43:54.222Z,2
2022-12-17T03:53:54.872Z,1.9
2022-12-17T04:03:55.642Z,1.8
2022-12-17T04:13:56.333Z,1.8
2022-12-17T04:23:57.040Z,1.5
2022-12-17T04:33:57.746Z,1.6
2022-12-17T04:44:02.901Z,1.8
2022-12-17T04:53:59.195Z,2.1
2022-12-17T05:03:59.974Z,2.1
2022-12-17T05:14:00.585Z,2.2
2022-12-17T05:24:01.338Z,2.1
2022-12-17T05:34:03.309Z,2.4
2022-12-17T05:44:02.935Z,2.4
2022-12-17T05:54:04.647Z,2.3
2022-12-17T06:04:04.148Z,2.4
2022-12-17T06:14:04.590Z,2.4
2022-12-17T06:24:06.657Z,2.4
2022-12-17T06:34:06.025Z,2.5
2022-12-17T06:44:06.513Z,3
2022-12-17T06:54:07.203Z,3.4
2022-12-17T07:02:23.947Z,3.4
2022-12-17T07:04:07.859Z,3.3
2022-12-17T07:14:08.468Z,3.4
2022-12-17T07:24:09.135Z,3.5
2022-12-17T07:26:07.247Z,3.5
2022-12-17T07:34:09.863Z,3.3
2022-12-17T07:44:11.398Z,3.5
2022-12-17T07:54:10.980Z,3.8
2022-12-17T08:04:11.606Z,3.6
2022-12-17T08:14:12.139Z,3.7
2022-12-17T08:24:12.725Z,3.8
2022-12-17T08:34:14.518Z,4
2022-12-17T08:44:15.041Z,4.3
2022-12-17T08:54:14.465Z,4.2
2022-12-17T09:04:15.054Z,4.3
2022-12-17T09:14:15.566Z,4.6
2022-12-17T09:24:17.264Z,4.5
2022-12-17T09:34:16.655Z,4.8
2022-12-17T09:44:17.226Z,4.5
2022-12-17T09:54:17.699Z,4.3
2022-12-17T10:04:18.330Z,4.6
2022-12-17T10:14:19.947Z,3.8
2022-12-17T10:24:19.495Z,4.4
2022-12-17T10:34:20.032Z,4.2
2022-12-17T10:44:20.605Z,4.4
2022-12-17T10:54:21.169Z,4.4
2022-12-17T11:04:27.481Z,4.3
2022-12-17T11:14:22.134Z,4
2022-12-17T11:24:23.163Z,4.4
2022-12-17T11:34:23.016Z,4.5
2022-12-17T11:44:23.445Z,4.1
2022-12-17T11:54:24.065Z,4.2
2022-12-17T12:04:28.667Z,3.7
2022-12-17T12:14:24.993Z,4
2022-12-17T12:15:35.636Z,4
2022-12-17T12:24:28.268Z,4.2
2022-12-17T12:34:26.085Z,3.8
2022-12-17T12:42:47.641Z,3.8
2022-12-17T12:44:26.538Z,3.7
2022-12-17T12:48:41.625Z,3.7
2022-12-17T12:50:25.920Z,3.7
2022-12-17T12:54:28.289Z,3.3
2022-12-17T13:04:29.065Z,3.7
2022-12-17T13:14:29.336Z,3.3
2022-12-17T13:24:28.211Z,3.2
2022-12-17T13:34:28.737Z,3.5
2022-12-17T13:43:37.919Z,3.5
2022-12-17T13:44:29.209Z,2.9
2022-12-17T13:54:31.712Z,2.8
2022-12-17T14:04:30.231Z,2.9
2022-12-17T14:24:41.405Z,2.4
2022-12-17T14:25:32.435Z,2.4
2022-12-17T14:26:28.912Z,2.4
2022-12-17T14:34:33.689Z,2.5
2022-12-17T14:43:50.650Z,2.5
2022-12-17T14:44:32.305Z,2.2
2022-12-17T14:45:50.888Z,2.2
2022-12-17T14:49:04.305Z,2.2
2022-12-17T14:54:33.856Z,2.5
2022-12-17T15:04:33.818Z,2.6
2022-12-17T15:14:35.101Z,2.2
2022-12-17T15:24:34.679Z,2.4
2022-12-17T15:34:35.251Z,2.5
2022-12-17T15:44:36.004Z,2.9
2022-12-17T15:54:40.668Z,2.2
2022-12-17T15:55:56.437Z,2.2
2022-12-17T16:04:37.133Z,2.2
2022-12-17T16:14:32.460Z,2.2
2022-12-17T16:16:04.275Z,2.3
2022-12-17T16:24:38.452Z,2
2022-12-17T16:32:47.560Z,2
2022-12-17T16:34:39.299Z,1.9
2022-12-17T16:44:39.805Z,1.6
2022-12-17T16:54:53.793Z,2
2022-12-17T17:04:45.747Z,1.9
2022-12-17T17:14:43.690Z,1.9
2022-12-17T17:24:42.807Z,1.6
2022-12-17T17:30:44.150Z,1.6
2022-12-17T17:32:23.081Z,1.6
2022-12-17T17:34:49.900Z,1.5
2022-12-17T17:39:53.656Z,1.5
2022-12-17T17:42:23.474Z,1.5
2022-12-17T17:44:44.421Z,1.6
2022-12-17T17:54:45.282Z,1.4
2022-12-17T17:57:31.383Z,1.4
2022-12-17T18:04:51.926Z,1.6
2022-12-17T18:15:12.383Z,1.3
2022-12-17T18:24:47.624Z,1.7
2022-12-17T18:28:08.652Z,1.7
2022-12-17T18:34:53.590Z,1.2
2022-12-17T18:45:01.086Z,1.3
2022-12-17T18:50:47.717Z,1.3
2022-12-17T18:54:53.108Z,1.5
2022-12-17T19:04:51.290Z,1.4
2022-12-17T19:07:38.223Z,1.4
2022-12-17T19:14:56.702Z,1.3
2022-12-17T19:20:56.621Z,1.3
2022-12-17T19:24:53.101Z,1.7
2022-12-17T19:29:23.104Z,1.7
2022-12-17T19:34:41.697Z,1.7
2022-12-17T19:34:53.963Z,1.3
2022-12-17T19:45:50.479Z,1.3
2022-12-17T19:55:00.354Z,1.8
2022-12-17T19:56:35.837Z,1.8
2022-12-17T19:57:26.452Z,1.8
2022-12-17T20:05:01.065Z,1.9
2022-12-17T20:14:57.775Z,1.3
2022-12-17T20:24:58.846Z,1.3
2022-12-17T20:29:52.658Z,1.3
2022-12-17T20:34:59.814Z,1.2
2022-12-17T20:42:52.388Z,1.2
2022-12-17T20:45:01.963Z,1.3
2022-12-17T20:55:04.273Z,1.7
2022-12-17T20:59:00.134Z,1.7
2022-12-17T21:00:03.780Z,1.7
2022-12-17T21:03:32.764Z,1.7
2022-12-17T21:04:47.645Z,1.7
2022-12-17T21:05:02.674Z,1.8
2022-12-17T21:05:55.974Z,1.8
2022-12-17T21:06:13.763Z,1.8
2022-12-17T21:15:03.567Z,1.5
2022-12-17T21:25:05.817Z,1.5
2022-12-17T21:35:06.767Z,1.2
2022-12-17T21:45:07.401Z,1.3
2022-12-17T21:55:07.297Z,1.5
2022-12-17T22:05:13.736Z,1.5
2022-12-17T22:15:09.198Z,1.6
2022-12-17T22:25:11.506Z,2.1
2022-12-17T22:35:29.900Z,2.2
2022-12-17T22:45:15.118Z,2.1
2022-12-17T22:55:18.457Z,3
2022-12-17T23:05:13.677Z,3.1
2022-12-17T23:15:14.524Z,3
2022-12-17T23:25:15.400Z,4.3
2022-12-17T23:35:16.211Z,4.7
2022-12-17T23:45:18.430Z,4.6
2022-12-17T23:55:17.840Z,5.1
